Accueil
METAR-TAF:

METAR-TAF

Aéroports :

Base aérienne 125 Istres-Le Tubé

Istres, France

latitude: 43-31N, longitude: 004-56E, altitude: 23 m

Observation

Le bulletin a été fait il y a 17 minutes, à 19:00 UTC
Vent 21 kt de nord avec des rafales jusqu'à 31 kt
Température 13°C
Humidité 35%
Pression 1019 hPa
Visibilité 10 km ou plus
pas de nuages en-dessous de 1500 mètres et pas de cumulonimbus.

METAR: LFMI 261900Z AUTO 35021G31KT CAVOK 13/M02 Q1019 BECMG 35010KT

Heure: 20:17 (19:17 UTC)

Prévision

Le bulletin a été fait il y a 5 heures et 17 minutes, à 14:00 UTC
Prévision valable du 26 à 15 UTC au 27 à 15 UTC
Vent 25 kt de nord/nord-ouest avec des rafales jusqu'à 35 kt
Visibilité 10 km ou plus
pas de nuages en-dessous de 1500 mètres et pas de cumulonimbus.
Evoluant progressivement
du 26 à 18 UTC au 26 à 22 UTC
Vent 10 kt de nord

TAF: LFMI 261400Z 2615/2715 34025G35KT CAVOK BECMG 2618/2622 35010KT

Observations et prévisions météorologiques de plus de 4000 aéroports (messages METAR et TAF).

Les stations disponibles sont représentées par des disques jaunes et rouges sur la carte.

Passer la souris dessus pour voir le nom de la station.

Cliquer dessus pour voir les observations et prévisions météorologiques.

Pour changer de carte: cliquez sur les boutons verts avec une croix noire pour zoomer, sur le bouton vert avec un tiret pour effectuer un zoom arrière, ou sur les flèches vertes pour les cartes adjacentes.


METAR-TAF: